sensor_id;sensor_type;location;lat;lon;timestamp;P1;durP1;ratioP1;P2;durP2;ratioP2
66669;SDS011;53568;52.164;4.472;2022-09-02T00:00:57;1.72;;;1.72;;
66669;SDS011;53568;52.164;4.472;2022-09-02T00:03:33;1.61;;;1.61;;
66669;SDS011;53568;52.164;4.472;2022-09-02T00:05:59;1.58;;;1.58;;
66669;SDS011;53568;52.164;4.472;2022-09-02T00:08:27;1.62;;;1.62;;
66669;SDS011;53568;52.164;4.472;2022-09-02T00:10:53;1.42;;;1.42;;
66669;SDS011;53568;52.164;4.472;2022-09-02T00:13:19;1.47;;;1.47;;
66669;SDS011;53568;52.164;4.472;2022-09-02T00:15:46;1.41;;;1.41;;
66669;SDS011;53568;52.164;4.472;2022-09-02T00:18:13;1.58;;;1.58;;
66669;SDS011;53568;52.164;4.472;2022-09-02T00:20:42;1.61;;;1.61;;
66669;SDS011;53568;52.164;4.472;2022-09-02T00:23:10;1.39;;;1.39;;
66669;SDS011;53568;52.164;4.472;2022-09-02T00:25:37;1.58;;;1.58;;
66669;SDS011;53568;52.164;4.472;2022-09-02T00:28:04;1.43;;;1.43;;
66669;SDS011;53568;52.164;4.472;2022-09-02T00:30:31;1.48;;;1.48;;
66669;SDS011;53568;52.164;4.472;2022-09-02T00:32:58;1.38;;;1.38;;
66669;SDS011;53568;52.164;4.472;2022-09-02T00:35:24;1.59;;;1.59;;
66669;SDS011;53568;52.164;4.472;2022-09-02T00:37:50;1.58;;;1.58;;
66669;SDS011;53568;52.164;4.472;2022-09-02T00:40:16;1.44;;;1.44;;
66669;SDS011;53568;52.164;4.472;2022-09-02T00:42:42;1.40;;;1.40;;
66669;SDS011;53568;52.164;4.472;2022-09-02T00:45:09;1.39;;;1.39;;
66669;SDS011;53568;52.164;4.472;2022-09-02T00:47:35;1.56;;;1.56;;
66669;SDS011;53568;52.164;4.472;2022-09-02T00:50:02;1.53;;;1.53;;
66669;SDS011;53568;52.164;4.472;2022-09-02T00:52:42;1.57;;;1.57;;
66669;SDS011;53568;52.164;4.472;2022-09-02T00:55:21;1.56;;;1.56;;
66669;SDS011;53568;52.164;4.472;2022-09-02T00:57:56;1.50;;;1.50;;
66669;SDS011;53568;52.164;4.472;2022-09-02T01:00:27;1.56;;;1.56;;
66669;SDS011;53568;52.164;4.472;2022-09-02T01:03:00;1.49;;;1.49;;
66669;SDS011;53568;52.164;4.472;2022-09-02T01:05:29;1.55;;;1.55;;
66669;SDS011;53568;52.164;4.472;2022-09-02T01:07:59;1.61;;;1.61;;
66669;SDS011;53568;52.164;4.472;2022-09-02T01:10:30;1.59;;;1.59;;
66669;SDS011;53568;52.164;4.472;2022-09-02T01:13:00;1.54;;;1.54;;
66669;SDS011;53568;52.164;4.472;2022-09-02T01:15:31;1.48;;;1.48;;
66669;SDS011;53568;52.164;4.472;2022-09-02T01:18:01;1.51;;;1.51;;
66669;SDS011;53568;52.164;4.472;2022-09-02T01:20:29;1.49;;;1.49;;
66669;SDS011;53568;52.164;4.472;2022-09-02T01:22:54;1.72;;;1.72;;
66669;SDS011;53568;52.164;4.472;2022-09-02T01:25:23;1.58;;;1.58;;
66669;SDS011;53568;52.164;4.472;2022-09-02T01:27:52;1.60;;;1.60;;
66669;SDS011;53568;52.164;4.472;2022-09-02T01:30:24;1.30;;;1.30;;
66669;SDS011;53568;52.164;4.472;2022-09-02T01:32:50;1.58;;;1.58;;
66669;SDS011;53568;52.164;4.472;2022-09-02T01:35:16;1.53;;;1.53;;
66669;SDS011;53568;52.164;4.472;2022-09-02T01:37:42;1.54;;;1.54;;
66669;SDS011;53568;52.164;4.472;2022-09-02T01:40:11;1.50;;;1.50;;
66669;SDS011;53568;52.164;4.472;2022-09-02T01:42:39;1.44;;;1.44;;
66669;SDS011;53568;52.164;4.472;2022-09-02T01:45:06;1.29;;;1.29;;
66669;SDS011;53568;52.164;4.472;2022-09-02T01:47:33;1.53;;;1.53;;
66669;SDS011;53568;52.164;4.472;2022-09-02T01:50:00;1.66;;;1.66;;
66669;SDS011;53568;52.164;4.472;2022-09-02T01:52:28;1.56;;;1.56;;
66669;SDS011;53568;52.164;4.472;2022-09-02T01:54:54;1.46;;;1.46;;
66669;SDS011;53568;52.164;4.472;2022-09-02T01:57:20;1.56;;;1.56;;
66669;SDS011;53568;52.164;4.472;2022-09-02T01:59:49;1.64;;;1.64;;
66669;SDS011;53568;52.164;4.472;2022-09-02T02:02:15;1.53;;;1.53;;
66669;SDS011;53568;52.164;4.472;2022-09-02T02:04:44;1.53;;;1.53;;
66669;SDS011;53568;52.164;4.472;2022-09-02T02:07:12;1.57;;;1.57;;
66669;SDS011;53568;52.164;4.472;2022-09-02T02:09:40;1.52;;;1.52;;
66669;SDS011;53568;52.164;4.472;2022-09-02T02:12:07;1.53;;;1.53;;
66669;SDS011;53568;52.164;4.472;2022-09-02T02:14:32;1.42;;;1.42;;
66669;SDS011;53568;52.164;4.472;2022-09-02T02:16:58;1.41;;;1.41;;
66669;SDS011;53568;52.164;4.472;2022-09-02T02:19:24;1.48;;;1.48;;
66669;SDS011;53568;52.164;4.472;2022-09-02T02:21:50;1.56;;;1.56;;
66669;SDS011;53568;52.164;4.472;2022-09-02T02:24:16;1.49;;;1.49;;
66669;SDS011;53568;52.164;4.472;2022-09-02T02:26:42;1.50;;;1.50;;
66669;SDS011;53568;52.164;4.472;2022-09-02T02:29:08;1.61;;;1.61;;
66669;SDS011;53568;52.164;4.472;2022-09-02T02:31:34;1.56;;;1.56;;
66669;SDS011;53568;52.164;4.472;2022-09-02T02:33:59;1.47;;;1.47;;
66669;SDS011;53568;52.164;4.472;2022-09-02T02:36:26;1.65;;;1.65;;
66669;SDS011;53568;52.164;4.472;2022-09-02T02:38:51;1.56;;;1.56;;
66669;SDS011;53568;52.164;4.472;2022-09-02T02:41:17;1.56;;;1.56;;
66669;SDS011;53568;52.164;4.472;2022-09-02T02:43:43;1.64;;;1.64;;
66669;SDS011;53568;52.164;4.472;2022-09-02T02:46:09;1.67;;;1.67;;
66669;SDS011;53568;52.164;4.472;2022-09-02T02:48:36;1.60;;;1.60;;
66669;SDS011;53568;52.164;4.472;2022-09-02T02:51:03;1.76;;;1.76;;
66669;SDS011;53568;52.164;4.472;2022-09-02T02:53:30;1.64;;;1.64;;
66669;SDS011;53568;52.164;4.472;2022-09-02T02:55:56;1.81;;;1.81;;
66669;SDS011;53568;52.164;4.472;2022-09-02T02:58:22;1.82;;;1.82;;
66669;SDS011;53568;52.164;4.472;2022-09-02T03:00:48;1.63;;;1.63;;
66669;SDS011;53568;52.164;4.472;2022-09-02T03:03:14;1.71;;;1.71;;
66669;SDS011;53568;52.164;4.472;2022-09-02T03:05:44;1.80;;;1.80;;
66669;SDS011;53568;52.164;4.472;2022-09-02T03:08:11;1.77;;;1.77;;
66669;SDS011;53568;52.164;4.472;2022-09-02T03:10:38;1.80;;;1.80;;
66669;SDS011;53568;52.164;4.472;2022-09-02T03:13:06;1.83;;;1.83;;
66669;SDS011;53568;52.164;4.472;2022-09-02T03:15:36;1.73;;;1.73;;
66669;SDS011;53568;52.164;4.472;2022-09-02T03:18:03;1.84;;;1.84;;
66669;SDS011;53568;52.164;4.472;2022-09-02T03:20:29;1.79;;;1.79;;
66669;SDS011;53568;52.164;4.472;2022-09-02T03:22:56;1.85;;;1.85;;
66669;SDS011;53568;52.164;4.472;2022-09-02T03:25:23;1.61;;;1.61;;
66669;SDS011;53568;52.164;4.472;2022-09-02T03:27:50;1.77;;;1.77;;
66669;SDS011;53568;52.164;4.472;2022-09-02T03:30:18;1.84;;;1.84;;
66669;SDS011;53568;52.164;4.472;2022-09-02T03:32:47;1.94;;;1.94;;
66669;SDS011;53568;52.164;4.472;2022-09-02T03:35:16;1.76;;;1.76;;
66669;SDS011;53568;52.164;4.472;2022-09-02T03:37:43;1.69;;;1.69;;
66669;SDS011;53568;52.164;4.472;2022-09-02T03:40:12;1.74;;;1.74;;
66669;SDS011;53568;52.164;4.472;2022-09-02T03:42:40;1.90;;;1.90;;
66669;SDS011;53568;52.164;4.472;2022-09-02T03:45:06;1.93;;;1.93;;
66669;SDS011;53568;52.164;4.472;2022-09-02T03:47:34;2.14;;;2.14;;
66669;SDS011;53568;52.164;4.472;2022-09-02T03:50:00;1.97;;;1.97;;
66669;SDS011;53568;52.164;4.472;2022-09-02T03:52:27;2.01;;;2.01;;
66669;SDS011;53568;52.164;4.472;2022-09-02T03:54:53;1.93;;;1.93;;
66669;SDS011;53568;52.164;4.472;2022-09-02T03:57:18;1.93;;;1.93;;
66669;SDS011;53568;52.164;4.472;2022-09-02T03:59:45;1.87;;;1.87;;
66669;SDS011;53568;52.164;4.472;2022-09-02T04:02:10;1.99;;;1.99;;
66669;SDS011;53568;52.164;4.472;2022-09-02T04:04:36;1.92;;;1.92;;
66669;SDS011;53568;52.164;4.472;2022-09-02T04:07:01;1.82;;;1.82;;
66669;SDS011;53568;52.164;4.472;2022-09-02T04:09:27;1.88;;;1.88;;
66669;SDS011;53568;52.164;4.472;2022-09-02T04:11:53;1.84;;;1.84;;
66669;SDS011;53568;52.164;4.472;2022-09-02T04:14:18;1.84;;;1.84;;
66669;SDS011;53568;52.164;4.472;2022-09-02T04:16:44;1.87;;;1.87;;
66669;SDS011;53568;52.164;4.472;2022-09-02T04:19:10;1.86;;;1.86;;
66669;SDS011;53568;52.164;4.472;2022-09-02T04:21:36;1.82;;;1.82;;
66669;SDS011;53568;52.164;4.472;2022-09-02T04:24:05;2.05;;;2.05;;
66669;SDS011;53568;52.164;4.472;2022-09-02T04:26:31;1.98;;;1.98;;
66669;SDS011;53568;52.164;4.472;2022-09-02T04:28:57;1.91;;;1.91;;
66669;SDS011;53568;52.164;4.472;2022-09-02T04:31:24;2.06;;;2.06;;
66669;SDS011;53568;52.164;4.472;2022-09-02T04:33:52;2.09;;;2.09;;
66669;SDS011;53568;52.164;4.472;2022-09-02T04:36:18;2.10;;;2.10;;
66669;SDS011;53568;52.164;4.472;2022-09-02T04:38:45;2.15;;;2.15;;
66669;SDS011;53568;52.164;4.472;2022-09-02T04:41:12;2.02;;;2.02;;
66669;SDS011;53568;52.164;4.472;2022-09-02T04:43:40;2.06;;;2.06;;
66669;SDS011;53568;52.164;4.472;2022-09-02T04:46:06;2.08;;;2.08;;
66669;SDS011;53568;52.164;4.472;2022-09-02T04:48:35;1.98;;;1.98;;
66669;SDS011;53568;52.164;4.472;2022-09-02T04:51:05;2.09;;;2.09;;
66669;SDS011;53568;52.164;4.472;2022-09-02T04:53:33;2.05;;;2.05;;
66669;SDS011;53568;52.164;4.472;2022-09-02T04:55:59;1.93;;;1.93;;
66669;SDS011;53568;52.164;4.472;2022-09-02T04:58:28;2.40;;;2.40;;
66669;SDS011;53568;52.164;4.472;2022-09-02T05:00:53;2.45;;;2.45;;
66669;SDS011;53568;52.164;4.472;2022-09-02T05:03:19;2.22;;;2.22;;
66669;SDS011;53568;52.164;4.472;2022-09-02T05:05:44;2.45;;;2.45;;
66669;SDS011;53568;52.164;4.472;2022-09-02T05:08:12;3.11;;;3.11;;
66669;SDS011;53568;52.164;4.472;2022-09-02T05:10:38;2.54;;;2.54;;
66669;SDS011;53568;52.164;4.472;2022-09-02T05:13:04;2.41;;;2.41;;
66669;SDS011;53568;52.164;4.472;2022-09-02T05:15:30;2.15;;;2.15;;
66669;SDS011;53568;52.164;4.472;2022-09-02T05:17:57;2.17;;;2.17;;
66669;SDS011;53568;52.164;4.472;2022-09-02T05:20:22;2.11;;;2.11;;
66669;SDS011;53568;52.164;4.472;2022-09-02T05:22:48;2.35;;;2.35;;
66669;SDS011;53568;52.164;4.472;2022-09-02T05:25:14;2.41;;;2.41;;
66669;SDS011;53568;52.164;4.472;2022-09-02T05:27:40;2.35;;;2.35;;
66669;SDS011;53568;52.164;4.472;2022-09-02T05:30:06;2.32;;;2.32;;
66669;SDS011;53568;52.164;4.472;2022-09-02T05:32:32;2.46;;;2.46;;
66669;SDS011;53568;52.164;4.472;2022-09-02T05:34:58;2.38;;;2.38;;
66669;SDS011;53568;52.164;4.472;2022-09-02T05:37:24;2.17;;;2.17;;
66669;SDS011;53568;52.164;4.472;2022-09-02T05:39:50;2.28;;;2.28;;
66669;SDS011;53568;52.164;4.472;2022-09-02T05:42:16;2.35;;;2.35;;
66669;SDS011;53568;52.164;4.472;2022-09-02T05:44:43;2.15;;;2.15;;
66669;SDS011;53568;52.164;4.472;2022-09-02T05:47:09;2.34;;;2.34;;
66669;SDS011;53568;52.164;4.472;2022-09-02T05:49:36;2.35;;;2.35;;
66669;SDS011;53568;52.164;4.472;2022-09-02T05:52:02;2.32;;;2.32;;
66669;SDS011;53568;52.164;4.472;2022-09-02T05:54:29;2.56;;;2.56;;
66669;SDS011;53568;52.164;4.472;2022-09-02T05:56:57;2.50;;;2.50;;
66669;SDS011;53568;52.164;4.472;2022-09-02T05:59:27;2.40;;;2.40;;
66669;SDS011;53568;52.164;4.472;2022-09-02T06:01:54;2.41;;;2.41;;
66669;SDS011;53568;52.164;4.472;2022-09-02T06:04:21;2.41;;;2.41;;
66669;SDS011;53568;52.164;4.472;2022-09-02T06:06:48;2.62;;;2.62;;
66669;SDS011;53568;52.164;4.472;2022-09-02T06:09:15;2.63;;;2.63;;
66669;SDS011;53568;52.164;4.472;2022-09-02T06:11:43;2.72;;;2.72;;
66669;SDS011;53568;52.164;4.472;2022-09-02T06:14:14;2.95;;;2.95;;
66669;SDS011;53568;52.164;4.472;2022-09-02T06:16:43;2.89;;;2.89;;
66669;SDS011;53568;52.164;4.472;2022-09-02T06:19:09;2.81;;;2.81;;
66669;SDS011;53568;52.164;4.472;2022-09-02T06:21:36;2.63;;;2.63;;
66669;SDS011;53568;52.164;4.472;2022-09-02T06:24:05;2.85;;;2.85;;
66669;SDS011;53568;52.164;4.472;2022-09-02T06:26:32;3.05;;;3.05;;
66669;SDS011;53568;52.164;4.472;2022-09-02T06:28:58;2.90;;;2.90;;
66669;SDS011;53568;52.164;4.472;2022-09-02T06:31:23;3.07;;;3.07;;
66669;SDS011;53568;52.164;4.472;2022-09-02T06:33:53;3.14;;;3.14;;
66669;SDS011;53568;52.164;4.472;2022-09-02T06:36:21;3.10;;;3.10;;
66669;SDS011;53568;52.164;4.472;2022-09-02T06:38:49;3.03;;;3.03;;
66669;SDS011;53568;52.164;4.472;2022-09-02T06:41:18;2.92;;;2.92;;
66669;SDS011;53568;52.164;4.472;2022-09-02T06:43:51;2.85;;;2.85;;
66669;SDS011;53568;52.164;4.472;2022-09-02T06:46:20;2.55;;;2.55;;
66669;SDS011;53568;52.164;4.472;2022-09-02T06:48:48;2.56;;;2.56;;
66669;SDS011;53568;52.164;4.472;2022-09-02T06:51:35;2.44;;;2.44;;
66669;SDS011;53568;52.164;4.472;2022-09-02T06:54:02;2.73;;;2.73;;
66669;SDS011;53568;52.164;4.472;2022-09-02T06:56:31;2.72;;;2.72;;
66669;SDS011;53568;52.164;4.472;2022-09-02T06:58:57;2.75;;;2.75;;
66669;SDS011;53568;52.164;4.472;2022-09-02T07:01:28;2.51;;;2.51;;
66669;SDS011;53568;52.164;4.472;2022-09-02T07:03:55;2.63;;;2.63;;
66669;SDS011;53568;52.164;4.472;2022-09-02T07:06:42;2.71;;;2.71;;
66669;SDS011;53568;52.164;4.472;2022-09-02T07:09:11;2.80;;;2.80;;
66669;SDS011;53568;52.164;4.472;2022-09-02T07:11:39;2.62;;;2.62;;
66669;SDS011;53568;52.164;4.472;2022-09-02T07:14:05;2.74;;;2.74;;
66669;SDS011;53568;52.164;4.472;2022-09-02T07:16:32;2.55;;;2.55;;
66669;SDS011;53568;52.164;4.472;2022-09-02T07:19:01;2.64;;;2.64;;
66669;SDS011;53568;52.164;4.472;2022-09-02T07:21:27;2.80;;;2.80;;
66669;SDS011;53568;52.164;4.472;2022-09-02T07:23:57;2.91;;;2.91;;
66669;SDS011;53568;52.164;4.472;2022-09-02T07:26:23;2.77;;;2.77;;
66669;SDS011;53568;52.164;4.472;2022-09-02T07:28:49;2.83;;;2.83;;
66669;SDS011;53568;52.164;4.472;2022-09-02T07:31:15;2.84;;;2.84;;
66669;SDS011;53568;52.164;4.472;2022-09-02T07:33:41;2.88;;;2.88;;
66669;SDS011;53568;52.164;4.472;2022-09-02T07:36:09;3.04;;;3.04;;
66669;SDS011;53568;52.164;4.472;2022-09-02T07:38:36;2.84;;;2.84;;
66669;SDS011;53568;52.164;4.472;2022-09-02T07:41:02;2.87;;;2.87;;
66669;SDS011;53568;52.164;4.472;2022-09-02T07:43:29;3.05;;;3.05;;
66669;SDS011;53568;52.164;4.472;2022-09-02T07:45:56;3.28;;;3.28;;
66669;SDS011;53568;52.164;4.472;2022-09-02T07:48:22;3.20;;;3.20;;
66669;SDS011;53568;52.164;4.472;2022-09-02T07:50:49;3.09;;;3.09;;
66669;SDS011;53568;52.164;4.472;2022-09-02T07:53:15;3.25;;;3.25;;
66669;SDS011;53568;52.164;4.472;2022-09-02T07:55:42;3.21;;;3.21;;
66669;SDS011;53568;52.164;4.472;2022-09-02T07:58:10;3.37;;;3.37;;
66669;SDS011;53568;52.164;4.472;2022-09-02T08:00:38;3.24;;;3.24;;
66669;SDS011;53568;52.164;4.472;2022-09-02T08:03:04;3.37;;;3.37;;
66669;SDS011;53568;52.164;4.472;2022-09-02T08:05:31;3.47;;;3.47;;
66669;SDS011;53568;52.164;4.472;2022-09-02T08:07:58;3.23;;;3.23;;
66669;SDS011;53568;52.164;4.472;2022-09-02T08:10:24;3.39;;;3.39;;
66669;SDS011;53568;52.164;4.472;2022-09-02T08:12:53;3.50;;;3.50;;
66669;SDS011;53568;52.164;4.472;2022-09-02T08:15:19;3.53;;;3.53;;
66669;SDS011;53568;52.164;4.472;2022-09-02T08:17:45;3.76;;;3.76;;
66669;SDS011;53568;52.164;4.472;2022-09-02T08:20:12;4.15;;;4.15;;
66669;SDS011;53568;52.164;4.472;2022-09-02T08:22:39;3.97;;;3.97;;
66669;SDS011;53568;52.164;4.472;2022-09-02T08:25:05;3.95;;;3.95;;
66669;SDS011;53568;52.164;4.472;2022-09-02T08:27:32;3.83;;;3.83;;
66669;SDS011;53568;52.164;4.472;2022-09-02T08:29:58;4.15;;;4.15;;
66669;SDS011;53568;52.164;4.472;2022-09-02T08:32:25;4.44;;;4.44;;
66669;SDS011;53568;52.164;4.472;2022-09-02T08:34:51;3.91;;;3.91;;
66669;SDS011;53568;52.164;4.472;2022-09-02T08:37:16;3.89;;;3.89;;
66669;SDS011;53568;52.164;4.472;2022-09-02T08:39:43;3.76;;;3.76;;
66669;SDS011;53568;52.164;4.472;2022-09-02T08:44:48;3.87;;;3.87;;
66669;SDS011;53568;52.164;4.472;2022-09-02T08:47:20;3.81;;;3.81;;
66669;SDS011;53568;52.164;4.472;2022-09-02T08:49:53;3.98;;;3.98;;
66669;SDS011;53568;52.164;4.472;2022-09-02T08:55:22;4.08;;;4.08;;
66669;SDS011;53568;52.164;4.472;2022-09-02T08:57:56;3.97;;;3.97;;
66669;SDS011;53568;52.164;4.472;2022-09-02T09:00:22;4.18;;;4.18;;
66669;SDS011;53568;52.164;4.472;2022-09-02T09:05:42;4.27;;;4.27;;
66669;SDS011;53568;52.164;4.472;2022-09-02T09:11:12;4.37;;;4.37;;
66669;SDS011;53568;52.164;4.472;2022-09-02T09:13:54;4.55;;;4.55;;
66669;SDS011;53568;52.164;4.472;2022-09-02T09:21:37;4.70;;;4.70;;
66669;SDS011;53568;52.164;4.472;2022-09-02T09:26:45;4.33;;;4.33;;
66669;SDS011;53568;52.164;4.472;2022-09-02T09:29:11;4.36;;;4.36;;
66669;SDS011;53568;52.164;4.472;2022-09-02T09:31:37;4.23;;;4.23;;
66669;SDS011;53568;52.164;4.472;2022-09-02T09:34:06;4.66;;;4.66;;
66669;SDS011;53568;52.164;4.472;2022-09-02T09:41:45;4.84;;;4.84;;
66669;SDS011;53568;52.164;4.472;2022-09-02T09:47:05;4.59;;;4.59;;
66669;SDS011;53568;52.164;4.472;2022-09-02T09:49:34;4.90;;;4.90;;
66669;SDS011;53568;52.164;4.472;2022-09-02T09:52:01;4.95;;;4.95;;
66669;SDS011;53568;52.164;4.472;2022-09-02T09:54:28;5.13;;;5.13;;
66669;SDS011;53568;52.164;4.472;2022-09-02T09:56:54;5.00;;;5.00;;
66669;SDS011;53568;52.164;4.472;2022-09-02T10:02:24;5.00;;;5.00;;
66669;SDS011;53568;52.164;4.472;2022-09-02T10:04:52;5.01;;;5.01;;
66669;SDS011;53568;52.164;4.472;2022-09-02T10:07:40;5.02;;;5.02;;
66669;SDS011;53568;52.164;4.472;2022-09-02T10:10:29;5.14;;;5.14;;
66669;SDS011;53568;52.164;4.472;2022-09-02T10:12:55;5.50;;;5.50;;
66669;SDS011;53568;52.164;4.472;2022-09-02T10:15:35;5.08;;;5.08;;
66669;SDS011;53568;52.164;4.472;2022-09-02T10:21:15;5.82;;;5.82;;
66669;SDS011;53568;52.164;4.472;2022-09-02T10:26:57;5.35;;;5.35;;
66669;SDS011;53568;52.164;4.472;2022-09-02T10:37:23;5.42;;;5.42;;
66669;SDS011;53568;52.164;4.472;2022-09-02T10:42:45;5.59;;;5.59;;
66669;SDS011;53568;52.164;4.472;2022-09-02T10:45:38;5.55;;;5.55;;
66669;SDS011;53568;52.164;4.472;2022-09-02T10:53:58;6.27;;;6.27;;
66669;SDS011;53568;52.164;4.472;2022-09-02T10:56:42;6.21;;;6.21;;
66669;SDS011;53568;52.164;4.472;2022-09-02T10:59:19;6.17;;;6.17;;
66669;SDS011;53568;52.164;4.472;2022-09-02T11:04:36;5.81;;;5.81;;
66669;SDS011;53568;52.164;4.472;2022-09-02T11:07:05;5.80;;;5.80;;
66669;SDS011;53568;52.164;4.472;2022-09-02T11:12:13;6.31;;;6.31;;
66669;SDS011;53568;52.164;4.472;2022-09-02T11:14:55;6.00;;;6.00;;
66669;SDS011;53568;52.164;4.472;2022-09-02T11:25:25;6.24;;;6.24;;
66669;SDS011;53568;52.164;4.472;2022-09-02T11:31:20;6.84;;;6.84;;
66669;SDS011;53568;52.164;4.472;2022-09-02T11:33:55;6.91;;;6.91;;
66669;SDS011;53568;52.164;4.472;2022-09-02T11:36:26;6.58;;;6.58;;
66669;SDS011;53568;52.164;4.472;2022-09-02T11:38:54;6.42;;;6.42;;
66669;SDS011;53568;52.164;4.472;2022-09-02T11:41:46;8.09;;;8.09;;
66669;SDS011;53568;52.164;4.472;2022-09-02T11:47:20;6.16;;;6.16;;
66669;SDS011;53568;52.164;4.472;2022-09-02T11:55:41;5.71;;;5.71;;
66669;SDS011;53568;52.164;4.472;2022-09-02T11:58:34;6.31;;;6.31;;
66669;SDS011;53568;52.164;4.472;2022-09-02T12:01:05;6.43;;;6.43;;
66669;SDS011;53568;52.164;4.472;2022-09-02T12:03:48;6.41;;;6.41;;
66669;SDS011;53568;52.164;4.472;2022-09-02T12:06:25;5.94;;;5.94;;
66669;SDS011;53568;52.164;4.472;2022-09-02T12:14:02;5.00;;;5.00;;
66669;SDS011;53568;52.164;4.472;2022-09-02T12:16:35;4.20;;;4.20;;
66669;SDS011;53568;52.164;4.472;2022-09-02T12:21:36;4.60;;;4.60;;
66669;SDS011;53568;52.164;4.472;2022-09-02T12:24:52;4.70;;;4.70;;
66669;SDS011;53568;52.164;4.472;2022-09-02T12:27:31;3.94;;;3.94;;
66669;SDS011;53568;52.164;4.472;2022-09-02T12:30:02;3.99;;;3.99;;
66669;SDS011;53568;52.164;4.472;2022-09-02T12:35:12;4.35;;;4.35;;
66669;SDS011;53568;52.164;4.472;2022-09-02T12:46:49;4.36;;;4.36;;
66669;SDS011;53568;52.164;4.472;2022-09-02T12:49:42;5.34;;;5.34;;
66669;SDS011;53568;52.164;4.472;2022-09-02T12:55:17;5.00;;;5.00;;
66669;SDS011;53568;52.164;4.472;2022-09-02T12:58:08;4.19;;;4.19;;
66669;SDS011;53568;52.164;4.472;2022-09-02T13:06:17;3.92;;;3.92;;
66669;SDS011;53568;52.164;4.472;2022-09-02T13:11:49;3.84;;;3.84;;
66669;SDS011;53568;52.164;4.472;2022-09-02T13:14:51;3.68;;;3.68;;
66669;SDS011;53568;52.164;4.472;2022-09-02T13:20:38;3.84;;;3.84;;
66669;SDS011;53568;52.164;4.472;2022-09-02T13:27:02;3.95;;;3.95;;
66669;SDS011;53568;52.164;4.472;2022-09-02T13:32:46;3.97;;;3.97;;
66669;SDS011;53568;52.164;4.472;2022-09-02T13:35:34;4.96;;;4.96;;
66669;SDS011;53568;52.164;4.472;2022-09-02T13:38:03;4.21;;;4.21;;
66669;SDS011;53568;52.164;4.472;2022-09-02T13:40:34;4.29;;;4.29;;
66669;SDS011;53568;52.164;4.472;2022-09-02T13:43:03;4.58;;;4.58;;
66669;SDS011;53568;52.164;4.472;2022-09-02T13:45:42;4.70;;;4.70;;
66669;SDS011;53568;52.164;4.472;2022-09-02T13:48:19;4.99;;;4.99;;
66669;SDS011;53568;52.164;4.472;2022-09-02T13:50:48;4.62;;;4.62;;
66669;SDS011;53568;52.164;4.472;2022-09-02T13:53:20;4.79;;;4.79;;
66669;SDS011;53568;52.164;4.472;2022-09-02T13:56:02;4.86;;;4.86;;
66669;SDS011;53568;52.164;4.472;2022-09-02T14:01:16;5.42;;;5.42;;
66669;SDS011;53568;52.164;4.472;2022-09-02T14:03:51;4.20;;;4.20;;
66669;SDS011;53568;52.164;4.472;2022-09-02T14:06:24;4.53;;;4.53;;
66669;SDS011;53568;52.164;4.472;2022-09-02T14:08:55;5.25;;;5.25;;
66669;SDS011;53568;52.164;4.472;2022-09-02T14:11:25;5.62;;;5.62;;
66669;SDS011;53568;52.164;4.472;2022-09-02T14:13:53;4.91;;;4.91;;
66669;SDS011;53568;52.164;4.472;2022-09-02T14:16:29;4.89;;;4.89;;
66669;SDS011;53568;52.164;4.472;2022-09-02T14:19:07;4.61;;;4.61;;
66669;SDS011;53568;52.164;4.472;2022-09-02T14:21:43;4.71;;;4.71;;
66669;SDS011;53568;52.164;4.472;2022-09-02T14:24:14;5.25;;;5.25;;
66669;SDS011;53568;52.164;4.472;2022-09-02T14:26:45;4.99;;;4.99;;
66669;SDS011;53568;52.164;4.472;2022-09-02T14:29:19;4.88;;;4.88;;
66669;SDS011;53568;52.164;4.472;2022-09-02T14:32:00;7.96;;;7.96;;
66669;SDS011;53568;52.164;4.472;2022-09-02T14:34:38;5.93;;;5.93;;
66669;SDS011;53568;52.164;4.472;2022-09-02T14:39:51;4.66;;;4.66;;
66669;SDS011;53568;52.164;4.472;2022-09-02T14:42:26;4.01;;;4.01;;
66669;SDS011;53568;52.164;4.472;2022-09-02T14:44:52;4.35;;;4.35;;
66669;SDS011;53568;52.164;4.472;2022-09-02T14:47:18;4.27;;;4.27;;
66669;SDS011;53568;52.164;4.472;2022-09-02T14:49:57;3.97;;;3.97;;
66669;SDS011;53568;52.164;4.472;2022-09-02T14:52:30;3.42;;;3.42;;
66669;SDS011;53568;52.164;4.472;2022-09-02T14:55:00;4.06;;;4.06;;
66669;SDS011;53568;52.164;4.472;2022-09-02T14:57:32;3.92;;;3.92;;
66669;SDS011;53568;52.164;4.472;2022-09-02T15:00:10;3.74;;;3.74;;
66669;SDS011;53568;52.164;4.472;2022-09-02T15:02:39;3.49;;;3.49;;
66669;SDS011;53568;52.164;4.472;2022-09-02T15:05:15;3.43;;;3.43;;
66669;SDS011;53568;52.164;4.472;2022-09-02T15:07:46;3.41;;;3.41;;
66669;SDS011;53568;52.164;4.472;2022-09-02T15:10:11;3.63;;;3.63;;
66669;SDS011;53568;52.164;4.472;2022-09-02T15:15:32;3.51;;;3.51;;
66669;SDS011;53568;52.164;4.472;2022-09-02T15:17:58;3.46;;;3.46;;
66669;SDS011;53568;52.164;4.472;2022-09-02T15:20:37;3.38;;;3.38;;
66669;SDS011;53568;52.164;4.472;2022-09-02T15:23:40;3.49;;;3.49;;
66669;SDS011;53568;52.164;4.472;2022-09-02T15:26:06;3.66;;;3.66;;
66669;SDS011;53568;52.164;4.472;2022-09-02T15:28:34;3.62;;;3.62;;
66669;SDS011;53568;52.164;4.472;2022-09-02T15:31:02;3.68;;;3.68;;
66669;SDS011;53568;52.164;4.472;2022-09-02T15:33:28;3.59;;;3.59;;
66669;SDS011;53568;52.164;4.472;2022-09-02T15:36:05;3.65;;;3.65;;
66669;SDS011;53568;52.164;4.472;2022-09-02T15:38:59;3.69;;;3.69;;
66669;SDS011;53568;52.164;4.472;2022-09-02T15:41:27;3.69;;;3.69;;
66669;SDS011;53568;52.164;4.472;2022-09-02T15:43:57;3.61;;;3.61;;
66669;SDS011;53568;52.164;4.472;2022-09-02T15:46:29;3.51;;;3.51;;
66669;SDS011;53568;52.164;4.472;2022-09-02T15:51:41;3.65;;;3.65;;
66669;SDS011;53568;52.164;4.472;2022-09-02T15:54:15;3.65;;;3.65;;
66669;SDS011;53568;52.164;4.472;2022-09-02T15:56:46;3.58;;;3.58;;
66669;SDS011;53568;52.164;4.472;2022-09-02T15:59:14;3.71;;;3.71;;
66669;SDS011;53568;52.164;4.472;2022-09-02T16:02:03;3.71;;;3.71;;
66669;SDS011;53568;52.164;4.472;2022-09-02T16:04:34;3.39;;;3.39;;
66669;SDS011;53568;52.164;4.472;2022-09-02T16:07:00;3.64;;;3.64;;
66669;SDS011;53568;52.164;4.472;2022-09-02T16:09:32;3.59;;;3.59;;
66669;SDS011;53568;52.164;4.472;2022-09-02T16:12:13;3.89;;;3.89;;
66669;SDS011;53568;52.164;4.472;2022-09-02T16:15:00;3.93;;;3.93;;
66669;SDS011;53568;52.164;4.472;2022-09-02T16:17:28;3.91;;;3.91;;
66669;SDS011;53568;52.164;4.472;2022-09-02T16:20:03;3.96;;;3.96;;
66669;SDS011;53568;52.164;4.472;2022-09-02T16:22:34;4.08;;;4.08;;
66669;SDS011;53568;52.164;4.472;2022-09-02T16:27:46;4.04;;;4.04;;
66669;SDS011;53568;52.164;4.472;2022-09-02T16:30:33;3.72;;;3.72;;
66669;SDS011;53568;52.164;4.472;2022-09-02T16:33:05;4.08;;;4.08;;
66669;SDS011;53568;52.164;4.472;2022-09-02T16:35:51;3.88;;;3.88;;
66669;SDS011;53568;52.164;4.472;2022-09-02T16:38:30;4.09;;;4.09;;
66669;SDS011;53568;52.164;4.472;2022-09-02T16:41:05;3.99;;;3.99;;
66669;SDS011;53568;52.164;4.472;2022-09-02T16:44:18;3.88;;;3.88;;
66669;SDS011;53568;52.164;4.472;2022-09-02T16:49:34;4.02;;;4.02;;
66669;SDS011;53568;52.164;4.472;2022-09-02T16:52:19;4.12;;;4.12;;
66669;SDS011;53568;52.164;4.472;2022-09-02T16:54:55;4.16;;;4.16;;
66669;SDS011;53568;52.164;4.472;2022-09-02T17:00:46;4.84;;;4.84;;
66669;SDS011;53568;52.164;4.472;2022-09-02T17:10:01;3.97;;;3.97;;
66669;SDS011;53568;52.164;4.472;2022-09-02T17:12:32;3.83;;;3.83;;
66669;SDS011;53568;52.164;4.472;2022-09-02T17:15:59;3.94;;;3.94;;
66669;SDS011;53568;52.164;4.472;2022-09-02T17:21:53;3.55;;;3.55;;
66669;SDS011;53568;52.164;4.472;2022-09-02T17:27:30;3.97;;;3.97;;
66669;SDS011;53568;52.164;4.472;2022-09-02T17:30:23;3.99;;;3.99;;
66669;SDS011;53568;52.164;4.472;2022-09-02T17:33:08;3.87;;;3.87;;
66669;SDS011;53568;52.164;4.472;2022-09-02T17:42:00;3.87;;;3.87;;
66669;SDS011;53568;52.164;4.472;2022-09-02T17:47:51;4.08;;;4.08;;
66669;SDS011;53568;52.164;4.472;2022-09-02T17:50:27;3.93;;;3.93;;